createdAt,value
2022-09-24T00:01:39.891Z,3.20
2022-09-24T00:04:08.280Z,3.25
2022-09-24T00:06:39.492Z,2.83
2022-09-24T00:09:06.414Z,3.05
2022-09-24T00:11:33.394Z,3.33
2022-09-24T00:14:00.590Z,2.80
2022-09-24T00:16:32.121Z,2.90
2022-09-24T00:18:59.668Z,3.20
2022-09-24T00:21:28.017Z,2.67
2022-09-24T00:23:56.767Z,3.17
2022-09-24T00:26:44.791Z,3.15
2022-09-24T00:29:12.720Z,2.97
2022-09-24T00:31:39.697Z,3.50
2022-09-24T00:34:06.562Z,2.65
2022-09-24T00:36:33.471Z,3.20
2022-09-24T00:39:00.715Z,3.15
2022-09-24T00:41:29.591Z,3.10
2022-09-24T00:43:56.413Z,3.05
2022-09-24T00:46:23.293Z,3.00
2022-09-24T00:48:52.021Z,3.22
2022-09-24T00:51:22.190Z,3.20
2022-09-24T00:53:51.121Z,3.10
2022-09-24T00:56:19.452Z,3.15
2022-09-24T00:58:52.377Z,2.65
2022-09-24T01:01:23.488Z,3.10
2022-09-24T01:03:51.816Z,2.63
2022-09-24T01:06:21.112Z,3.15
2022-09-24T01:08:47.908Z,2.90
2022-09-24T01:11:33.386Z,2.90
2022-09-24T01:14:06.473Z,2.88
2022-09-24T01:16:39.459Z,3.00
2022-09-24T01:19:09.321Z,2.60
2022-09-24T01:21:39.330Z,2.80
2022-09-24T01:24:19.066Z,2.90
2022-09-24T01:26:56.609Z,2.85
2022-09-24T01:29:23.348Z,3.05
2022-09-24T01:32:10.454Z,3.25
2022-09-24T01:34:48.902Z,2.50
2022-09-24T01:37:17.443Z,2.30
2022-09-24T01:39:45.585Z,2.63
2022-09-24T01:42:13.628Z,2.80
2022-09-24T01:44:46.603Z,2.70
2022-09-24T01:47:18.669Z,2.70
2022-09-24T01:49:46.365Z,2.13
2022-09-24T01:52:17.736Z,3.08
2022-09-24T01:54:52.018Z,3.20
2022-09-24T01:57:24.335Z,2.83
2022-09-24T01:59:56.316Z,3.15
2022-09-24T02:02:50.137Z,2.70
2022-09-24T02:05:29.264Z,2.72
2022-09-24T02:08:15.210Z,2.50
2022-09-24T02:11:04.833Z,2.90
2022-09-24T02:13:39.553Z,2.45
2022-09-24T02:16:08.992Z,3.00
2022-09-24T02:18:38.694Z,2.75
2022-09-24T02:21:09.499Z,2.67
2022-09-24T02:23:37.682Z,2.80
2022-09-24T02:26:05.820Z,3.03
2022-09-24T02:28:33.375Z,2.70
2022-09-24T02:31:18.774Z,2.60
2022-09-24T02:34:08.291Z,2.47
2022-09-24T02:36:35.680Z,2.20
2022-09-24T02:39:03.196Z,2.85
2022-09-24T02:41:33.571Z,2.50
2022-09-24T02:44:05.767Z,2.65
2022-09-24T02:46:32.642Z,2.47
2022-09-24T02:48:59.803Z,2.63
2022-09-24T02:51:27.747Z,3.00
2022-09-24T02:53:54.532Z,2.95
2022-09-24T02:56:21.370Z,3.15
2022-09-24T02:58:48.166Z,3.13
2022-09-24T03:01:15.358Z,3.25
2022-09-24T03:03:42.254Z,3.00
2022-09-24T03:06:09.137Z,3.00
2022-09-24T03:08:36.418Z,3.38
2022-09-24T03:11:03.427Z,3.08
2022-09-24T03:13:32.793Z,3.00
2022-09-24T03:16:02.364Z,2.97
2022-09-24T03:18:31.721Z,3.35
2022-09-24T03:21:05.842Z,2.65
2022-09-24T03:23:32.905Z,3.08
2022-09-24T03:25:59.699Z,3.42
2022-09-24T03:28:27.148Z,3.08
2022-09-24T03:31:00.110Z,3.20
2022-09-24T03:33:34.528Z,3.25
2022-09-24T03:36:03.033Z,2.97
2022-09-24T03:38:32.364Z,3.30
2022-09-24T03:40:59.603Z,3.20
2022-09-24T03:43:26.502Z,2.88
2022-09-24T03:45:53.407Z,3.35
2022-09-24T03:48:23.642Z,3.30
2022-09-24T03:50:50.711Z,3.03
2022-09-24T03:53:18.018Z,3.42
2022-09-24T03:55:46.897Z,3.60
2022-09-24T03:58:16.460Z,3.80
2022-09-24T04:00:46.048Z,3.30
2022-09-24T04:03:12.931Z,3.00
2022-09-24T04:05:40.266Z,3.50
2022-09-24T04:08:07.215Z,3.30
2022-09-24T04:10:34.414Z,3.30
2022-09-24T04:13:03.920Z,3.30
2022-09-24T04:15:30.791Z,3.70
2022-09-24T04:17:58.795Z,3.60
2022-09-24T04:20:30.773Z,3.50
2022-09-24T04:23:01.593Z,3.60
2022-09-24T04:25:32.808Z,3.45
2022-09-24T04:28:00.717Z,3.53
2022-09-24T04:30:28.304Z,3.40
2022-09-24T04:32:55.617Z,3.53
2022-09-24T04:35:25.688Z,4.05
2022-09-24T04:37:52.879Z,4.30
2022-09-24T04:40:22.433Z,3.30
2022-09-24T04:42:49.401Z,2.92
2022-09-24T04:45:19.385Z,3.65
2022-09-24T04:47:58.116Z,3.50
2022-09-24T04:50:26.722Z,3.80
2022-09-24T04:52:54.359Z,3.65
2022-09-24T04:55:21.731Z,3.40
2022-09-24T04:57:48.954Z,3.65
2022-09-24T05:00:20.474Z,3.60
2022-09-24T05:05:14.456Z,3.38
2022-09-24T05:07:42.013Z,3.78
2022-09-24T05:10:09.478Z,3.83
2022-09-24T05:12:36.514Z,3.72
2022-09-24T05:15:04.153Z,3.58
2022-09-24T05:17:31.139Z,3.92
2022-09-24T05:19:59.649Z,3.05
2022-09-24T05:22:28.010Z,3.70
2022-09-24T05:24:54.874Z,3.22
2022-09-24T05:27:23.246Z,3.08
2022-09-24T05:29:50.751Z,3.47
2022-09-24T05:32:18.964Z,3.30
2022-09-24T05:34:46.402Z,3.30
2022-09-24T05:37:13.668Z,3.22
2022-09-24T05:39:40.796Z,3.03
2022-09-24T05:42:10.141Z,3.55
2022-09-24T05:44:37.370Z,3.60
2022-09-24T05:47:04.246Z,3.25
2022-09-24T05:49:32.092Z,3.25
2022-09-24T05:51:59.064Z,3.67
2022-09-24T05:54:26.009Z,3.90
2022-09-24T05:56:52.872Z,3.65
2022-09-24T05:59:19.810Z,3.92
2022-09-24T06:01:49.269Z,3.22
2022-09-24T06:04:16.402Z,3.00
2022-09-24T06:06:43.549Z,3.35
2022-09-24T06:09:10.793Z,3.10
2022-09-24T06:11:40.780Z,3.22
2022-09-24T06:14:08.843Z,3.90
2022-09-24T06:16:36.338Z,3.95
2022-09-24T06:19:03.219Z,3.83
2022-09-24T06:21:29.991Z,3.65
2022-09-24T06:23:56.878Z,3.80
2022-09-24T06:26:26.157Z,4.38
2022-09-24T06:28:53.026Z,3.67
2022-09-24T06:31:20.296Z,3.60
2022-09-24T06:33:47.176Z,3.20
2022-09-24T06:36:14.906Z,4.10
2022-09-24T06:38:41.956Z,4.20
2022-09-24T06:41:10.199Z,3.80
2022-09-24T06:43:37.582Z,3.65
2022-09-24T06:46:05.005Z,3.80
2022-09-24T06:48:32.055Z,3.95
2022-09-24T06:50:59.067Z,3.70
2022-09-24T06:53:25.989Z,3.28
2022-09-24T06:55:56.162Z,3.45
2022-09-24T06:58:23.799Z,3.70
2022-09-24T07:00:54.687Z,3.40
2022-09-24T07:03:22.032Z,3.45
2022-09-24T07:05:48.988Z,3.90
2022-09-24T07:08:16.547Z,3.45
2022-09-24T07:10:44.448Z,3.58
2022-09-24T07:13:12.300Z,3.38
2022-09-24T07:15:39.541Z,3.85
2022-09-24T07:18:06.421Z,4.05
2022-09-24T07:20:36.805Z,3.90
2022-09-24T07:23:08.023Z,3.50
2022-09-24T07:25:35.429Z,4.05
2022-09-24T07:28:06.234Z,4.13
2022-09-24T07:30:33.640Z,3.88
2022-09-24T07:33:00.457Z,4.10
2022-09-24T07:35:28.320Z,4.60
2022-09-24T07:38:01.900Z,4.30
2022-09-24T07:40:29.577Z,4.70
2022-09-24T07:42:56.984Z,3.83
2022-09-24T07:45:24.806Z,3.90
2022-09-24T07:48:01.457Z,4.10
2022-09-24T07:50:29.414Z,4.25
2022-09-24T07:52:56.942Z,4.35
2022-09-24T07:55:23.862Z,4.78
2022-09-24T07:57:51.969Z,4.07
2022-09-24T08:00:19.638Z,4.78
2022-09-24T08:02:47.693Z,4.68
2022-09-24T08:05:18.197Z,4.88
2022-09-24T08:07:52.192Z,4.32
2022-09-24T08:10:19.294Z,4.28
2022-09-24T08:12:46.094Z,5.22
2022-09-24T08:15:13.155Z,4.38
2022-09-24T08:17:40.112Z,4.55
2022-09-24T08:20:07.113Z,4.80
2022-09-24T08:22:34.098Z,4.80
2022-09-24T08:25:03.222Z,4.30
2022-09-24T08:27:30.261Z,3.83
2022-09-24T08:29:57.933Z,4.05
2022-09-24T08:32:24.735Z,4.70
2022-09-24T08:34:52.762Z,3.67
2022-09-24T08:37:19.700Z,3.70
2022-09-24T08:39:46.555Z,3.80
2022-09-24T08:42:29.595Z,4.32
2022-09-24T08:45:15.975Z,4.20
2022-09-24T08:47:48.428Z,3.92
2022-09-24T08:50:17.514Z,4.15
2022-09-24T08:52:44.392Z,4.18
2022-09-24T08:55:20.043Z,3.75
2022-09-24T08:58:05.168Z,3.83
2022-09-24T09:00:37.200Z,3.60
2022-09-24T09:03:12.290Z,4.15
2022-09-24T09:05:49.241Z,3.50
2022-09-24T09:08:47.195Z,3.40
2022-09-24T09:11:13.269Z,3.10
2022-09-24T09:13:43.350Z,3.50
2022-09-24T09:16:19.172Z,3.00
2022-09-24T09:18:49.086Z,2.90
2022-09-24T09:21:17.331Z,2.58
2022-09-24T09:23:48.934Z,2.65
2022-09-24T09:26:18.344Z,2.40
2022-09-24T09:28:46.439Z,2.20
2022-09-24T09:31:25.810Z,2.75
2022-09-24T09:33:57.016Z,2.10
2022-09-24T09:36:23.801Z,2.17
2022-09-24T09:38:50.598Z,2.30
2022-09-24T09:41:34.998Z,2.10
2022-09-24T09:44:11.130Z,2.45
2022-09-24T09:46:40.884Z,1.90
2022-09-24T09:49:08.285Z,2.25
2022-09-24T09:51:41.521Z,2.10
2022-09-24T09:54:08.464Z,1.90
2022-09-24T09:56:55.024Z,2.20
2022-09-24T09:59:27.231Z,2.25
2022-09-24T10:01:57.722Z,2.33
2022-09-24T10:04:29.030Z,2.17
2022-09-24T10:07:12.376Z,2.10
2022-09-24T10:09:39.988Z,1.70
2022-09-24T10:12:14.366Z,2.00
2022-09-24T10:14:41.513Z,1.80
2022-09-24T10:17:13.659Z,1.70
2022-09-24T10:19:40.884Z,1.52
2022-09-24T10:22:33.941Z,1.55
2022-09-24T10:25:01.448Z,1.60
2022-09-24T10:27:35.460Z,1.67
2022-09-24T10:30:23.342Z,1.50
2022-09-24T10:32:57.003Z,1.30
2022-09-24T10:35:29.059Z,1.63
2022-09-24T10:37:57.734Z,1.63
2022-09-24T10:40:28.325Z,1.35
2022-09-24T10:42:57.316Z,1.20
2022-09-24T10:45:25.572Z,1.60
2022-09-24T10:47:52.351Z,1.30
2022-09-24T10:50:40.103Z,1.23
2022-09-24T10:53:11.427Z,1.17
2022-09-24T10:58:12.083Z,1.30
2022-09-24T11:00:40.113Z,1.25
2022-09-24T11:03:18.957Z,1.13
2022-09-24T11:05:52.826Z,0.90
2022-09-24T11:08:51.298Z,1.00
2022-09-24T11:11:38.313Z,1.00
2022-09-24T11:14:13.195Z,0.98
2022-09-24T11:16:52.470Z,1.08
2022-09-24T11:19:35.559Z,1.38
2022-09-24T11:22:11.535Z,1.15
2022-09-24T11:24:47.530Z,1.08
2022-09-24T11:27:26.990Z,1.02
2022-09-24T11:29:59.753Z,1.00
2022-09-24T11:32:29.773Z,0.93
2022-09-24T11:35:07.876Z,1.00
2022-09-24T11:37:46.863Z,1.00
2022-09-24T11:40:23.162Z,1.10
2022-09-24T11:43:09.428Z,1.20
2022-09-24T11:45:36.216Z,1.30
2022-09-24T11:48:15.138Z,1.33
2022-09-24T11:50:47.928Z,1.13
2022-09-24T11:53:14.955Z,1.00
2022-09-24T11:56:02.201Z,1.30
2022-09-24T11:58:34.491Z,1.17
2022-09-24T12:01:16.305Z,1.00
2022-09-24T12:04:01.874Z,1.20
2022-09-24T12:06:42.305Z,1.40
2022-09-24T12:09:09.676Z,1.20
2022-09-24T12:12:18.470Z,1.23
2022-09-24T12:17:22.203Z,1.00
2022-09-24T12:19:56.643Z,1.10
2022-09-24T12:22:26.186Z,1.10
2022-09-24T12:24:54.157Z,1.13
2022-09-24T12:27:33.290Z,1.15
2022-09-24T12:30:47.133Z,1.17
2022-09-24T12:33:16.654Z,1.30
2022-09-24T12:35:49.838Z,0.95
2022-09-24T12:38:25.003Z,0.85
2022-09-24T12:41:10.513Z,0.90
2022-09-24T12:43:46.469Z,0.85
2022-09-24T12:46:19.929Z,1.20
2022-09-24T12:48:51.153Z,0.70
2022-09-24T12:51:22.382Z,0.82
2022-09-24T12:56:27.454Z,0.80
2022-09-24T12:58:54.445Z,1.02
2022-09-24T13:01:24.443Z,1.33
2022-09-24T13:04:05.026Z,0.93
2022-09-24T13:06:37.222Z,0.98
2022-09-24T13:09:26.389Z,1.10
2022-09-24T13:12:05.844Z,0.90
2022-09-24T13:14:34.221Z,0.90
2022-09-24T13:17:05.323Z,1.00
2022-09-24T13:19:41.226Z,1.10
2022-09-24T13:22:31.175Z,1.30
2022-09-24T13:25:10.106Z,1.00
2022-09-24T13:27:41.879Z,0.95
2022-09-24T13:30:08.921Z,0.95
2022-09-24T13:32:54.203Z,0.90
2022-09-24T13:35:24.923Z,0.90
2022-09-24T13:38:06.168Z,0.85
2022-09-24T13:40:35.110Z,0.90
2022-09-24T13:43:14.157Z,1.00
2022-09-24T13:45:42.492Z,0.80
2022-09-24T13:48:23.710Z,1.08
2022-09-24T13:50:53.462Z,0.80
2022-09-24T13:53:23.672Z,1.35
2022-09-24T13:55:55.995Z,0.95
2022-09-24T13:58:33.161Z,1.10
2022-09-24T14:01:08.712Z,0.90
2022-09-24T14:03:43.757Z,0.80
2022-09-24T14:06:15.914Z,0.73
2022-09-24T14:08:47.815Z,0.90
2022-09-24T14:11:24.122Z,0.90
2022-09-24T14:14:01.179Z,0.80
2022-09-24T14:16:28.076Z,1.10
2022-09-24T14:19:14.632Z,0.90
2022-09-24T14:22:01.645Z,1.05
2022-09-24T14:24:30.278Z,0.93
2022-09-24T14:27:01.622Z,1.00
2022-09-24T14:29:34.866Z,0.75
2022-09-24T14:32:03.277Z,0.90
2022-09-24T14:34:32.609Z,1.08
2022-09-24T14:37:07.322Z,0.80
2022-09-24T14:39:40.098Z,1.10
2022-09-24T14:42:10.135Z,1.00
2022-09-24T14:44:42.472Z,1.15
2022-09-24T14:47:29.138Z,0.93
2022-09-24T14:49:59.538Z,1.30
2022-09-24T14:52:26.845Z,1.30
2022-09-24T14:55:06.039Z,1.00
2022-09-24T14:57:37.525Z,1.00
2022-09-24T15:00:21.346Z,1.10
2022-09-24T15:02:55.323Z,1.33
2022-09-24T15:05:29.359Z,1.58
2022-09-24T15:08:15.270Z,1.17
2022-09-24T15:10:43.639Z,1.30
2022-09-24T15:13:15.172Z,1.52
2022-09-24T15:15:42.177Z,1.10
2022-09-24T15:18:11.311Z,1.40
2022-09-24T15:20:41.376Z,1.40
2022-09-24T15:23:08.908Z,1.30
2022-09-24T15:25:36.714Z,1.20
2022-09-24T15:28:03.542Z,1.17
2022-09-24T15:30:37.488Z,1.20
2022-09-24T15:33:05.423Z,1.48
2022-09-24T15:35:33.262Z,1.30
2022-09-24T15:38:05.470Z,1.17
2022-09-24T15:40:34.604Z,1.10
2022-09-24T15:43:04.438Z,1.00
2022-09-24T15:45:31.234Z,1.20
2022-09-24T15:47:58.821Z,1.50
2022-09-24T15:50:28.653Z,1.40
2022-09-24T15:52:59.038Z,1.20
2022-09-24T15:55:25.850Z,0.80
2022-09-24T15:57:55.739Z,1.10
2022-09-24T16:00:24.016Z,1.00
2022-09-24T16:02:52.634Z,0.90
2022-09-24T16:05:20.574Z,0.90
2022-09-24T16:07:47.911Z,0.90
2022-09-24T16:10:15.331Z,0.80
2022-09-24T16:12:42.600Z,1.08
2022-09-24T16:15:12.909Z,5.10
2022-09-24T16:17:39.777Z,2.25
2022-09-24T16:20:10.350Z,6.35
2022-09-24T16:22:37.147Z,1.38
2022-09-24T16:25:04.148Z,1.40
2022-09-24T16:27:33.975Z,0.80
2022-09-24T16:30:01.535Z,0.90
2022-09-24T16:32:36.508Z,1.00
2022-09-24T16:35:03.820Z,0.80
2022-09-24T16:37:33.077Z,1.20
2022-09-24T16:39:59.864Z,0.90
2022-09-24T16:42:32.900Z,0.95
2022-09-24T16:45:02.978Z,1.20
2022-09-24T16:47:34.083Z,1.10
2022-09-24T16:50:00.995Z,1.58
2022-09-24T16:52:30.205Z,1.20
2022-09-24T16:54:57.692Z,1.42
2022-09-24T16:57:24.481Z,1.38
2022-09-24T16:59:51.313Z,1.90
2022-09-24T17:02:18.702Z,1.30
2022-09-24T17:04:46.018Z,1.40
2022-09-24T17:07:16.075Z,1.42
2022-09-24T17:10:01.641Z,1.25
2022-09-24T17:12:28.969Z,1.20
2022-09-24T17:14:57.723Z,1.30
2022-09-24T17:17:27.650Z,1.23
2022-09-24T17:19:56.359Z,1.27
2022-09-24T17:22:23.179Z,1.40
2022-09-24T17:24:51.375Z,1.63
2022-09-24T17:27:21.160Z,3.00
2022-09-24T17:29:57.447Z,2.22
2022-09-24T17:32:33.483Z,2.88
2022-09-24T17:35:02.747Z,1.80
2022-09-24T17:37:29.974Z,1.23
2022-09-24T17:40:03.012Z,1.50
2022-09-24T17:42:33.943Z,1.63
2022-09-24T17:45:01.381Z,1.40
2022-09-24T17:47:48.253Z,1.20
2022-09-24T17:50:16.138Z,1.35
2022-09-24T17:52:49.770Z,1.08
2022-09-24T17:55:17.636Z,1.08
2022-09-24T17:57:46.980Z,1.02
2022-09-24T18:00:14.371Z,0.98
2022-09-24T18:02:41.730Z,1.30
2022-09-24T18:05:10.973Z,1.23
2022-09-24T18:07:40.353Z,0.88
2022-09-24T18:10:07.639Z,1.00
2022-09-24T18:12:34.455Z,1.48
2022-09-24T18:15:03.776Z,1.58
2022-09-24T18:17:32.919Z,1.55
2022-09-24T18:19:59.723Z,1.23
2022-09-24T18:22:30.319Z,1.45
2022-09-24T18:25:03.087Z,1.10
2022-09-24T18:27:31.378Z,1.10
2022-09-24T18:29:58.447Z,1.10
2022-09-24T18:32:29.507Z,1.30
2022-09-24T18:34:56.346Z,1.20
2022-09-24T18:37:27.045Z,1.20
2022-09-24T18:39:53.807Z,1.30
2022-09-24T18:42:20.866Z,1.30
2022-09-24T18:44:47.720Z,1.40
2022-09-24T18:47:14.991Z,1.25
2022-09-24T18:49:49.381Z,1.30
2022-09-24T18:52:16.234Z,1.30
2022-09-24T18:54:43.010Z,1.17
2022-09-24T18:57:16.491Z,1.20
2022-09-24T18:59:47.011Z,1.17
2022-09-24T19:02:14.356Z,1.40
2022-09-24T19:04:41.497Z,1.70
2022-09-24T19:07:09.121Z,1.30
2022-09-24T19:09:36.148Z,1.55
2022-09-24T19:12:10.862Z,1.65
2022-09-24T19:14:40.680Z,1.30
2022-09-24T19:17:16.826Z,1.42
2022-09-24T19:19:52.170Z,1.40
2022-09-24T19:22:19.322Z,1.48
2022-09-24T19:24:48.633Z,1.50
2022-09-24T19:27:15.781Z,1.10
2022-09-24T19:29:43.671Z,1.27
2022-09-24T19:32:14.250Z,1.00
2022-09-24T19:34:41.404Z,1.40
2022-09-24T19:37:12.178Z,1.00
2022-09-24T19:39:38.922Z,1.10
2022-09-24T19:42:05.727Z,1.05
2022-09-24T19:44:32.658Z,1.10
2022-09-24T19:47:04.278Z,1.27
2022-09-24T19:49:31.141Z,1.02
2022-09-24T19:51:57.921Z,1.02
2022-09-24T19:54:24.723Z,0.90
2022-09-24T19:56:51.614Z,1.40
2022-09-24T19:59:21.560Z,1.25
2022-09-24T20:01:50.941Z,1.67
2022-09-24T20:04:20.503Z,1.10
2022-09-24T20:06:51.679Z,1.00
2022-09-24T20:09:18.821Z,1.20
2022-09-24T20:11:49.955Z,1.30
2022-09-24T20:14:28.225Z,1.25
2022-09-24T20:16:57.269Z,1.35
2022-09-24T20:19:27.145Z,1.17
2022-09-24T20:21:57.483Z,1.10
2022-09-24T20:24:24.379Z,1.10
2022-09-24T20:27:12.495Z,1.23
2022-09-24T20:29:39.423Z,1.00
2022-09-24T20:32:06.196Z,1.02
2022-09-24T20:34:38.857Z,1.33
2022-09-24T20:37:05.896Z,1.50
2022-09-24T20:39:36.794Z,1.10
2022-09-24T20:42:06.223Z,1.10
2022-09-24T20:44:33.537Z,1.10
2022-09-24T20:47:00.399Z,1.20
2022-09-24T20:49:30.943Z,0.98
2022-09-24T20:52:03.755Z,0.95
2022-09-24T20:54:39.868Z,1.15
2022-09-24T20:57:10.073Z,1.13
2022-09-24T20:59:40.955Z,1.17
2022-09-24T21:02:09.698Z,1.10
2022-09-24T21:04:37.198Z,1.00
2022-09-24T21:07:07.039Z,1.30
2022-09-24T21:09:42.594Z,1.40
2022-09-24T21:12:13.520Z,1.10
2022-09-24T21:14:40.349Z,1.40
2022-09-24T21:17:10.256Z,1.50
2022-09-24T21:19:39.664Z,1.30
2022-09-24T21:22:06.443Z,1.20
2022-09-24T21:24:33.596Z,1.27
2022-09-24T21:27:00.509Z,1.30
2022-09-24T21:29:27.411Z,1.23
2022-09-24T21:31:56.644Z,1.05
2022-09-24T21:34:26.579Z,1.17
2022-09-24T21:36:55.788Z,1.02
2022-09-24T21:39:26.142Z,1.30
2022-09-24T21:41:58.311Z,1.10
2022-09-24T21:44:28.479Z,1.40
2022-09-24T21:46:55.229Z,1.20
2022-09-24T21:49:22.997Z,1.33
2022-09-24T21:51:50.726Z,1.30
2022-09-24T21:54:20.045Z,1.40
2022-09-24T21:56:51.581Z,1.40
2022-09-24T21:59:41.635Z,1.23
2022-09-24T22:04:36.941Z,1.55
2022-09-24T22:07:06.864Z,1.63
2022-09-24T22:09:36.322Z,1.25
2022-09-24T22:12:07.386Z,1.70
2022-09-24T22:14:37.207Z,1.50
2022-09-24T22:17:10.663Z,1.38
2022-09-24T22:19:40.367Z,1.30
2022-09-24T22:22:10.582Z,1.30
2022-09-24T22:24:37.433Z,1.58
2022-09-24T22:27:06.410Z,1.85
2022-09-24T22:29:33.425Z,1.40
2022-09-24T22:32:00.639Z,1.33
2022-09-24T22:34:46.606Z,1.15
2022-09-24T22:37:13.496Z,1.00
2022-09-24T22:39:42.749Z,1.38
2022-09-24T22:42:14.929Z,1.70
2022-09-24T22:44:41.968Z,1.38
2022-09-24T22:47:11.904Z,1.38
2022-09-24T22:49:43.135Z,1.02
2022-09-24T22:52:10.151Z,1.25
2022-09-24T22:54:36.945Z,1.58
2022-09-24T22:57:06.874Z,1.30
2022-09-24T22:59:34.055Z,1.30
2022-09-24T23:02:00.981Z,1.50
2022-09-24T23:04:32.726Z,1.50
2022-09-24T23:06:59.595Z,1.60
2022-09-24T23:09:26.562Z,1.20
2022-09-24T23:11:53.790Z,1.50
2022-09-24T23:14:20.627Z,1.52
2022-09-24T23:16:50.026Z,1.45
2022-09-24T23:19:18.424Z,1.33
2022-09-24T23:21:45.826Z,1.20
2022-09-24T23:24:19.682Z,1.30
2022-09-24T23:26:49.245Z,1.27
2022-09-24T23:29:16.433Z,1.50
2022-09-24T23:31:46.455Z,1.58
2022-09-24T23:34:17.163Z,1.60
2022-09-24T23:36:46.283Z,1.50
2022-09-24T23:39:16.488Z,1.52
2022-09-24T23:41:43.428Z,1.50
2022-09-24T23:44:13.821Z,1.48
2022-09-24T23:46:43.287Z,1.52
2022-09-24T23:49:14.422Z,1.58
2022-09-24T23:51:41.478Z,1.40
2022-09-24T23:54:08.558Z,1.50
2022-09-24T23:56:35.762Z,1.73
2022-09-24T23:59:05.178Z,1.50
